KINS

Creech AFB Airport

Indian Springs, Nevada, USA
METAR KINS 172058Z AUTO 29004KT 10SM CLR 10/M11 A3007 RMK AO2 SLP172 T01001108 57024 $
Observed Flight Rules
Dec-17 @ 20:58 UTC (32 minutes ago) Visual Flight Rules
Wind Visibility Clouds
290° at 4 knots 10 miles
  • Clear skies
Temperatures Readings
Current 10°C / 50°F
Dewpoint -11°C / 12°F
Humidity 22%
Altimeter 30.07" Hg
Pressure 1017.2 hPa
Elevation 955
METAR KINS 172058Z AUTO 29004KT 10SM CLR 10/M11 A3007 RMK AO2 SLP172 T01001108 57024 $
Observed Flight Rules
Dec-17 @ 20:58 UTC
(32 minutes ago)
VFR
Wind Visibility
290° at 4 knots 10 miles
Clouds
  • Clear skies
Temperature Dewpoint
10°C / 50°F -11°C / 12°F
Humidity Altimeter Pressure
22% 30.07" Hg 1017.2 hPa